createdAt,value
2022-12-25T00:00:20.896Z,12.71
2022-12-25T00:02:23.434Z,12.70
2022-12-25T00:04:25.398Z,12.80
2022-12-25T00:06:27.301Z,12.78
2022-12-25T00:08:29.346Z,12.80
2022-12-25T00:10:31.328Z,12.76
2022-12-25T00:12:33.240Z,12.81
2022-12-25T00:14:35.198Z,12.81
2022-12-25T00:16:37.146Z,12.82
2022-12-25T00:18:39.149Z,12.81
2022-12-25T00:20:41.061Z,12.85
2022-12-25T00:22:43.038Z,12.93
2022-12-25T00:24:47.120Z,12.91
2022-12-25T00:26:49.089Z,12.74
2022-12-25T00:28:54.087Z,12.77
2022-12-25T00:30:56.196Z,12.79
2022-12-25T00:32:58.113Z,12.74
2022-12-25T00:35:00.108Z,12.67
2022-12-25T00:37:02.071Z,12.70
2022-12-25T00:39:04.329Z,12.72
2022-12-25T00:41:09.488Z,12.70
2022-12-25T00:43:11.489Z,12.68
2022-12-25T00:45:15.801Z,12.65
2022-12-25T00:47:18.746Z,12.65
2022-12-25T00:49:23.854Z,12.74
2022-12-25T00:51:25.779Z,12.69
2022-12-25T00:53:28.868Z,12.68
2022-12-25T00:55:31.758Z,12.64
2022-12-25T00:57:34.473Z,12.71
2022-12-25T00:59:36.394Z,12.66
2022-12-25T01:01:38.786Z,12.66
2022-12-25T01:03:40.806Z,12.64
2022-12-25T01:05:42.898Z,12.69
2022-12-25T01:07:44.827Z,12.65
2022-12-25T01:09:51.228Z,12.62
2022-12-25T01:11:53.345Z,12.58
2022-12-25T01:13:55.316Z,12.57
2022-12-25T01:15:57.595Z,12.57
2022-12-25T01:18:03.963Z,12.54
2022-12-25T01:20:10.681Z,12.51
2022-12-25T01:22:13.719Z,12.47
2022-12-25T01:24:15.637Z,12.51
2022-12-25T01:26:19.660Z,12.41
2022-12-25T01:28:21.568Z,12.45
2022-12-25T01:30:23.458Z,12.44
2022-12-25T01:32:25.565Z,12.46
2022-12-25T01:34:27.457Z,12.45
2022-12-25T01:36:29.381Z,12.36
2022-12-25T01:38:31.412Z,12.37
2022-12-25T01:40:34.940Z,12.37
2022-12-25T01:42:36.975Z,12.35
2022-12-25T01:44:39.900Z,12.40
2022-12-25T01:46:43.165Z,12.39
2022-12-25T01:48:45.095Z,12.39
2022-12-25T01:50:54.266Z,12.37
2022-12-25T01:52:58.076Z,12.37
2022-12-25T01:55:04.431Z,12.39
2022-12-25T01:57:11.107Z,12.37
2022-12-25T01:59:16.311Z,12.38
2022-12-25T02:01:18.371Z,12.26
2022-12-25T02:03:21.999Z,12.27
2022-12-25T02:05:28.376Z,12.31
2022-12-25T02:07:34.851Z,12.36
2022-12-25T02:09:38.141Z,12.28
2022-12-25T02:11:44.622Z,12.37
2022-12-25T02:13:46.637Z,12.41
2022-12-25T02:15:52.060Z,12.40
2022-12-25T02:18:00.200Z,12.39
2022-12-25T02:20:10.812Z,12.38
2022-12-25T02:22:29.377Z,12.31
2022-12-25T02:24:37.640Z,12.33
2022-12-25T02:26:43.047Z,12.34
2022-12-25T02:28:52.389Z,12.15
2022-12-25T02:31:04.546Z,12.21
2022-12-25T02:33:17.629Z,12.25
2022-12-25T02:35:31.228Z,12.17
2022-12-25T02:37:36.720Z,12.26
2022-12-25T02:39:52.622Z,12.22
2022-12-25T02:41:59.551Z,12.17
2022-12-25T02:44:10.014Z,12.21
2022-12-25T02:46:19.753Z,12.26
2022-12-25T02:48:29.602Z,12.30
2022-12-25T02:50:35.425Z,12.30
2022-12-25T02:52:40.832Z,12.36
2022-12-25T02:54:51.182Z,12.24
2022-12-25T02:56:58.395Z,12.28
2022-12-25T02:59:04.295Z,12.26
2022-12-25T03:01:15.251Z,12.22
2022-12-25T03:03:22.755Z,12.19
2022-12-25T03:05:30.295Z,12.21
2022-12-25T03:07:35.212Z,12.22
2022-12-25T03:09:45.411Z,12.20
2022-12-25T03:11:55.948Z,12.11
2022-12-25T03:14:05.927Z,12.17
2022-12-25T03:16:11.314Z,12.20
2022-12-25T03:18:18.249Z,12.16
2022-12-25T03:20:23.391Z,12.14
2022-12-25T03:22:33.121Z,12.20
2022-12-25T03:24:38.328Z,12.14
2022-12-25T03:26:43.568Z,12.15
2022-12-25T03:28:45.552Z,12.19
2022-12-25T03:31:02.209Z,12.19
2022-12-25T03:33:36.835Z,12.18
2022-12-25T03:35:44.335Z,12.18
2022-12-25T03:37:56.740Z,12.23
2022-12-25T03:40:08.073Z,12.23
2022-12-25T03:42:14.868Z,12.25
2022-12-25T03:44:26.748Z,12.24
2022-12-25T03:46:37.658Z,12.27
2022-12-25T03:48:48.696Z,12.30
2022-12-25T03:51:00.250Z,12.27
2022-12-25T03:53:10.610Z,12.35
2022-12-25T03:55:18.105Z,12.40
2022-12-25T03:57:23.047Z,12.40
2022-12-25T03:59:28.467Z,12.43
2022-12-25T04:01:33.504Z,12.43
2022-12-25T04:03:38.682Z,12.45
2022-12-25T04:05:43.702Z,12.40
2022-12-25T04:07:48.823Z,12.50
2022-12-25T04:09:53.819Z,12.48
2022-12-25T04:12:02.405Z,12.52
2022-12-25T04:14:08.101Z,12.49
2022-12-25T04:16:13.109Z,12.51
2022-12-25T04:18:18.281Z,12.49
2022-12-25T04:20:23.383Z,12.52
2022-12-25T04:22:28.458Z,12.48
2022-12-25T04:24:33.563Z,12.44
2022-12-25T04:26:38.558Z,12.46
2022-12-25T04:28:43.565Z,12.47
2022-12-25T04:30:48.599Z,12.42
2022-12-25T04:32:53.608Z,12.48
2022-12-25T04:34:58.601Z,12.38
2022-12-25T04:37:01.317Z,12.45
2022-12-25T04:39:03.541Z,12.49
2022-12-25T04:41:06.108Z,12.49
2022-12-25T04:43:07.993Z,12.43
2022-12-25T04:45:10.773Z,12.52
2022-12-25T04:47:13.274Z,12.49
2022-12-25T04:49:15.220Z,12.47
2022-12-25T04:51:21.389Z,12.47
2022-12-25T04:53:23.535Z,12.47
2022-12-25T04:55:25.399Z,12.50
2022-12-25T04:57:27.335Z,12.50
2022-12-25T04:59:29.219Z,12.51
2022-12-25T05:01:31.263Z,12.49
2022-12-25T05:03:33.692Z,12.50
2022-12-25T05:05:39.712Z,12.57
2022-12-25T05:07:41.745Z,12.59
2022-12-25T05:09:43.873Z,12.53
2022-12-25T05:11:46.317Z,12.58
2022-12-25T05:13:48.262Z,12.52
2022-12-25T05:15:51.264Z,12.51
2022-12-25T05:17:53.343Z,12.57
2022-12-25T05:19:55.255Z,12.53
2022-12-25T05:21:57.196Z,12.45
2022-12-25T05:23:59.137Z,12.47
2022-12-25T05:26:05.783Z,12.42
2022-12-25T05:28:08.183Z,12.48
2022-12-25T05:30:10.503Z,12.45
2022-12-25T05:32:12.885Z,12.45
2022-12-25T05:34:14.890Z,12.43
2022-12-25T05:36:16.873Z,12.50
2022-12-25T05:38:18.823Z,12.42
2022-12-25T05:40:20.815Z,12.53
2022-12-25T05:42:22.768Z,12.54
2022-12-25T05:44:24.776Z,12.37
2022-12-25T05:46:26.691Z,12.46
2022-12-25T05:48:28.636Z,12.45
2022-12-25T05:50:30.639Z,12.48
2022-12-25T05:52:33.308Z,12.51
2022-12-25T05:54:35.986Z,12.43
2022-12-25T05:56:38.529Z,12.53
2022-12-25T05:58:41.700Z,12.54
2022-12-25T06:00:44.352Z,12.47
2022-12-25T06:02:46.472Z,12.50
2022-12-25T06:04:48.562Z,12.51
2022-12-25T06:06:50.548Z,12.51
2022-12-25T06:08:55.285Z,12.55
2022-12-25T06:10:57.240Z,12.59
2022-12-25T06:12:59.201Z,12.55
2022-12-25T06:15:01.279Z,12.53
2022-12-25T06:17:03.315Z,12.50
2022-12-25T06:19:05.492Z,12.43
2022-12-25T06:21:10.406Z,12.41
2022-12-25T06:23:12.460Z,12.45
2022-12-25T06:25:14.414Z,12.48
2022-12-25T06:27:16.492Z,12.56
2022-12-25T06:29:18.443Z,12.50
2022-12-25T06:31:22.901Z,12.52
2022-12-25T06:33:25.028Z,12.55
2022-12-25T06:35:27.397Z,12.59
2022-12-25T06:37:29.402Z,12.48
2022-12-25T06:39:31.419Z,12.41
2022-12-25T06:41:33.622Z,12.50
2022-12-25T06:43:35.554Z,12.48
2022-12-25T06:45:37.545Z,12.30
2022-12-25T06:47:39.558Z,12.42
2022-12-25T06:49:41.552Z,12.38
2022-12-25T06:51:43.508Z,12.29
2022-12-25T06:53:46.249Z,12.19
2022-12-25T06:55:48.136Z,12.19
2022-12-25T06:57:50.056Z,12.11
2022-12-25T06:59:55.379Z,12.16
2022-12-25T07:01:57.979Z,12.15
2022-12-25T07:04:03.556Z,12.14
2022-12-25T07:06:05.830Z,12.25
2022-12-25T07:08:07.787Z,12.16
2022-12-25T07:10:10.200Z,12.21
2022-12-25T07:12:18.544Z,12.32
2022-12-25T07:14:24.450Z,12.17
2022-12-25T07:16:26.708Z,12.25
2022-12-25T07:18:29.588Z,12.30
2022-12-25T07:20:31.723Z,12.28
2022-12-25T07:22:33.703Z,12.29
2022-12-25T07:24:35.656Z,12.24
2022-12-25T07:26:37.780Z,12.26
2022-12-25T07:28:40.106Z,12.34
2022-12-25T07:30:41.950Z,12.36
2022-12-25T07:32:49.836Z,12.34
2022-12-25T07:34:52.381Z,12.34
2022-12-25T07:36:55.608Z,12.38
2022-12-25T07:38:57.714Z,12.34
2022-12-25T07:40:59.649Z,12.33
2022-12-25T07:43:01.564Z,12.37
2022-12-25T07:45:04.054Z,12.38
2022-12-25T07:47:06.006Z,12.37
2022-12-25T07:49:08.077Z,12.43
2022-12-25T07:51:12.495Z,12.43
2022-12-25T07:53:14.475Z,12.43
2022-12-25T07:55:16.511Z,12.45
2022-12-25T07:57:18.401Z,12.47
2022-12-25T07:59:21.032Z,12.41
2022-12-25T08:01:27.047Z,12.48
2022-12-25T08:03:29.389Z,12.50
2022-12-25T08:05:32.973Z,12.52
2022-12-25T08:07:36.157Z,12.50
2022-12-25T08:09:38.094Z,12.51
2022-12-25T08:11:44.305Z,12.56
2022-12-25T08:13:46.259Z,12.46
2022-12-25T08:15:48.191Z,12.46
2022-12-25T08:17:50.178Z,12.49
2022-12-25T08:19:52.206Z,12.48
2022-12-25T08:21:54.126Z,12.52
2022-12-25T08:23:56.105Z,12.39
2022-12-25T08:26:05.182Z,12.51
2022-12-25T08:28:07.777Z,12.55
2022-12-25T08:30:10.165Z,12.56
2022-12-25T08:32:12.124Z,12.50
2022-12-25T08:34:14.385Z,12.54
2022-12-25T08:36:17.291Z,12.61
2022-12-25T08:38:19.285Z,12.61
2022-12-25T08:40:21.384Z,12.63
2022-12-25T08:42:23.309Z,12.66
2022-12-25T08:44:25.249Z,12.61
2022-12-25T08:46:27.235Z,12.70
2022-12-25T08:48:29.413Z,12.63
2022-12-25T08:50:31.325Z,12.72
2022-12-25T08:52:33.298Z,12.80
2022-12-25T08:54:36.637Z,12.70
2022-12-25T08:56:38.706Z,12.78
2022-12-25T08:58:40.652Z,12.76
2022-12-25T09:00:42.719Z,12.83
2022-12-25T09:02:44.693Z,12.88
2022-12-25T09:04:46.890Z,12.82
2022-12-25T09:06:50.337Z,12.87
2022-12-25T09:08:52.248Z,12.86
2022-12-25T09:10:54.272Z,12.89
2022-12-25T09:12:56.197Z,12.91
2022-12-25T09:14:58.175Z,12.91
2022-12-25T09:17:00.187Z,12.86
2022-12-25T09:19:02.429Z,12.90
2022-12-25T09:21:07.726Z,12.90
2022-12-25T09:23:13.783Z,12.91
2022-12-25T09:25:16.310Z,13.00
2022-12-25T09:27:18.233Z,12.99
2022-12-25T09:29:20.250Z,12.99
2022-12-25T09:31:23.056Z,12.99
2022-12-25T09:33:25.478Z,13.03
2022-12-25T09:35:27.503Z,13.01
2022-12-25T09:37:29.624Z,13.03
2022-12-25T09:39:31.686Z,13.06
2022-12-25T09:41:36.091Z,13.05
2022-12-25T09:43:42.791Z,13.07
2022-12-25T09:45:45.425Z,13.10
2022-12-25T09:47:49.595Z,13.11
2022-12-25T09:49:58.402Z,13.13
2022-12-25T09:52:07.652Z,13.14
2022-12-25T09:54:19.186Z,13.13
2022-12-25T09:56:26.101Z,13.11
2022-12-25T09:58:30.573Z,13.16
2022-12-25T10:00:38.731Z,13.15
2022-12-25T10:02:44.459Z,13.16
2022-12-25T10:04:52.752Z,13.22
2022-12-25T10:06:58.153Z,13.20
2022-12-25T10:09:10.986Z,13.13
2022-12-25T10:11:26.450Z,13.14
2022-12-25T10:13:39.850Z,13.15
2022-12-25T10:15:51.163Z,13.17
2022-12-25T10:18:04.988Z,13.19
2022-12-25T10:20:11.646Z,13.16
2022-12-25T10:22:19.908Z,13.20
2022-12-25T10:24:25.310Z,13.20
2022-12-25T10:26:30.820Z,13.19
2022-12-25T10:28:40.087Z,13.22
2022-12-25T10:30:45.219Z,13.25
2022-12-25T10:32:48.203Z,13.24
2022-12-25T10:34:50.799Z,13.22
2022-12-25T10:36:53.065Z,13.19
2022-12-25T10:38:55.868Z,13.18
2022-12-25T10:40:59.673Z,13.21
2022-12-25T10:43:08.694Z,13.16
2022-12-25T10:45:10.914Z,13.23
2022-12-25T10:47:12.828Z,13.16
2022-12-25T10:49:17.304Z,13.15
2022-12-25T10:51:25.418Z,13.15
2022-12-25T10:53:29.458Z,13.11
2022-12-25T10:55:32.822Z,13.17
2022-12-25T10:57:45.848Z,13.18
2022-12-25T10:59:52.181Z,13.21
2022-12-25T11:02:04.215Z,13.27
2022-12-25T11:04:06.311Z,13.23
2022-12-25T11:06:22.887Z,13.21
2022-12-25T11:08:27.651Z,13.19
2022-12-25T11:10:30.349Z,13.23
2022-12-25T11:12:36.660Z,13.12
2022-12-25T11:14:38.693Z,13.09
2022-12-25T11:16:41.423Z,13.11
2022-12-25T11:18:46.574Z,13.03
2022-12-25T11:20:50.566Z,13.11
2022-12-25T11:22:52.761Z,13.09
2022-12-25T11:24:55.163Z,13.15
2022-12-25T11:27:00.541Z,13.17
2022-12-25T11:29:03.439Z,13.12
2022-12-25T11:31:13.102Z,13.24
2022-12-25T11:33:16.581Z,13.26
2022-12-25T11:35:19.404Z,13.25
2022-12-25T11:37:27.979Z,13.22
2022-12-25T11:39:34.905Z,13.12
2022-12-25T11:41:39.182Z,13.22
2022-12-25T11:43:50.906Z,13.19
2022-12-25T11:46:00.667Z,13.13
2022-12-25T11:48:09.105Z,13.16
2022-12-25T11:50:14.541Z,13.14
2022-12-25T11:52:20.281Z,13.25
2022-12-25T11:54:26.787Z,13.25
2022-12-25T11:56:30.982Z,13.31
2022-12-25T11:58:41.254Z,13.33
2022-12-25T12:00:47.025Z,13.25
2022-12-25T12:03:00.605Z,13.33
2022-12-25T12:05:12.214Z,13.31
2022-12-25T12:07:22.893Z,13.42
2022-12-25T12:09:28.488Z,13.50
2022-12-25T12:11:36.551Z,13.47
2022-12-25T12:13:45.658Z,13.45
2022-12-25T12:15:49.386Z,13.52
2022-12-25T12:17:51.335Z,13.55
2022-12-25T12:19:53.302Z,13.52
2022-12-25T12:21:59.775Z,13.50
2022-12-25T12:24:05.113Z,13.45
2022-12-25T12:26:07.083Z,13.51
2022-12-25T12:28:20.671Z,13.52
2022-12-25T12:30:27.251Z,13.46
2022-12-25T12:32:35.518Z,13.44
2022-12-25T12:34:42.983Z,13.48
2022-12-25T12:36:44.967Z,13.52
2022-12-25T12:38:47.323Z,13.47
2022-12-25T12:40:56.509Z,13.45
2022-12-25T12:42:58.415Z,13.49
2022-12-25T12:45:10.726Z,13.49
2022-12-25T12:47:18.929Z,13.51
2022-12-25T12:49:24.798Z,13.41
2022-12-25T12:51:29.926Z,13.47
2022-12-25T12:53:34.159Z,13.43
2022-12-25T12:55:36.117Z,13.40
2022-12-25T12:57:40.139Z,13.37
2022-12-25T12:59:46.937Z,13.36
2022-12-25T13:02:00.418Z,13.40
2022-12-25T13:04:15.733Z,13.47
2022-12-25T13:06:28.559Z,13.52
2022-12-25T13:08:36.671Z,13.58
2022-12-25T13:10:44.494Z,13.61
2022-12-25T13:12:50.664Z,13.60
2022-12-25T13:14:53.100Z,13.56
2022-12-25T13:16:55.259Z,13.60
2022-12-25T13:18:57.949Z,13.68
2022-12-25T13:21:05.181Z,13.67
2022-12-25T13:23:13.317Z,13.68
2022-12-25T13:25:21.425Z,13.45
2022-12-25T13:27:26.615Z,13.55
2022-12-25T13:29:34.303Z,13.56
2022-12-25T13:31:36.327Z,13.46
2022-12-25T13:33:38.798Z,13.47
2022-12-25T13:35:44.029Z,13.44
2022-12-25T13:37:46.156Z,13.42
2022-12-25T13:39:54.326Z,13.42
2022-12-25T13:41:59.554Z,13.38
2022-12-25T13:44:02.489Z,13.37
2022-12-25T13:46:04.767Z,13.41
2022-12-25T13:48:15.126Z,13.42
2022-12-25T13:50:21.620Z,13.41
2022-12-25T13:52:29.828Z,13.39
2022-12-25T13:54:31.739Z,13.42
2022-12-25T13:56:36.112Z,13.40
2022-12-25T13:58:39.689Z,13.47
2022-12-25T14:00:47.657Z,13.50
2022-12-25T14:02:50.916Z,13.46
2022-12-25T14:04:53.203Z,13.39
2022-12-25T14:06:55.112Z,13.43
2022-12-25T14:08:58.868Z,13.33
2022-12-25T14:11:03.897Z,13.42
2022-12-25T14:13:11.561Z,13.45
2022-12-25T14:15:18.318Z,13.48
2022-12-25T14:17:20.838Z,13.40
2022-12-25T14:19:26.452Z,13.45
2022-12-25T14:21:32.807Z,13.39
2022-12-25T14:23:44.580Z,13.44
2022-12-25T14:25:47.759Z,13.44
2022-12-25T14:27:52.261Z,13.49
2022-12-25T14:29:58.822Z,13.48
2022-12-25T14:32:04.870Z,13.51
2022-12-25T14:34:15.889Z,13.55
2022-12-25T14:36:18.241Z,13.58
2022-12-25T14:38:21.915Z,13.57
2022-12-25T14:40:31.067Z,13.60
2022-12-25T14:42:36.190Z,13.61
2022-12-25T14:44:40.390Z,13.60
2022-12-25T14:46:42.429Z,13.58
2022-12-25T14:48:44.386Z,13.65
2022-12-25T14:50:52.531Z,13.66
2022-12-25T14:52:55.362Z,13.60
2022-12-25T14:55:01.329Z,13.63
2022-12-25T14:57:03.332Z,13.50
2022-12-25T14:59:07.820Z,13.54
2022-12-25T15:01:21.822Z,13.49
2022-12-25T15:03:29.484Z,13.57
2022-12-25T15:05:36.492Z,13.63
2022-12-25T15:07:38.452Z,13.57
2022-12-25T15:09:40.820Z,13.61
2022-12-25T15:11:42.703Z,13.64
2022-12-25T15:13:44.591Z,13.53
2022-12-25T15:15:51.844Z,13.43
2022-12-25T15:17:55.104Z,13.46
2022-12-25T15:19:59.917Z,13.41
2022-12-25T15:22:02.137Z,13.38
2022-12-25T15:24:04.584Z,13.39
2022-12-25T15:26:06.539Z,13.38
2022-12-25T15:28:13.099Z,13.40
2022-12-25T15:30:15.388Z,13.42
2022-12-25T15:32:20.638Z,13.40
2022-12-25T15:34:22.616Z,13.31
2022-12-25T15:36:25.487Z,13.33
2022-12-25T15:38:27.566Z,13.20
2022-12-25T15:40:29.496Z,13.29
2022-12-25T15:42:31.466Z,13.19
2022-12-25T15:44:33.384Z,13.24
2022-12-25T15:46:35.424Z,13.13
2022-12-25T15:48:37.396Z,13.16
2022-12-25T15:50:39.665Z,13.13
2022-12-25T15:52:41.827Z,13.07
2022-12-25T15:54:43.887Z,12.97
2022-12-25T15:56:50.411Z,12.99
2022-12-25T15:58:52.624Z,12.92
2022-12-25T16:00:54.533Z,12.94
2022-12-25T16:02:57.157Z,13.04
2022-12-25T16:04:59.252Z,13.04
2022-12-25T16:07:01.526Z,13.07
2022-12-25T16:09:03.689Z,12.98
2022-12-25T16:11:06.192Z,13.04
2022-12-25T16:13:08.204Z,13.03
2022-12-25T16:15:12.744Z,13.02
2022-12-25T16:17:16.192Z,12.96
2022-12-25T16:19:18.169Z,12.90
2022-12-25T16:21:22.305Z,12.85
2022-12-25T16:23:24.668Z,12.89
2022-12-25T16:25:28.358Z,12.89
2022-12-25T16:27:30.395Z,12.87
2022-12-25T16:29:32.543Z,12.90
2022-12-25T16:31:35.532Z,12.87
2022-12-25T16:33:37.554Z,12.78
2022-12-25T16:35:39.525Z,12.80
2022-12-25T16:37:42.247Z,12.85
2022-12-25T16:39:44.409Z,12.73
2022-12-25T16:41:46.349Z,12.71
2022-12-25T16:43:48.297Z,12.69
2022-12-25T16:45:50.264Z,12.68
2022-12-25T16:47:52.210Z,12.65
2022-12-25T16:49:54.179Z,12.74
2022-12-25T16:51:56.120Z,12.68
2022-12-25T16:53:58.166Z,12.76
2022-12-25T16:56:06.563Z,12.70
2022-12-25T16:58:08.494Z,12.74
2022-12-25T17:00:12.679Z,12.78
2022-12-25T17:02:18.616Z,12.68
2022-12-25T17:04:20.672Z,12.61
2022-12-25T17:06:25.581Z,12.64
2022-12-25T17:08:27.673Z,12.68
2022-12-25T17:10:29.819Z,12.66
2022-12-25T17:12:31.831Z,12.61
2022-12-25T17:14:34.191Z,12.73
2022-12-25T17:16:37.896Z,12.70
2022-12-25T17:18:39.897Z,12.74
2022-12-25T17:20:50.387Z,12.73
2022-12-25T17:22:52.537Z,12.75
2022-12-25T17:24:54.479Z,12.68
2022-12-25T17:26:56.534Z,12.64
2022-12-25T17:28:58.952Z,12.67
2022-12-25T17:31:04.380Z,12.61
2022-12-25T17:33:06.550Z,12.51
2022-12-25T17:35:09.136Z,12.61
2022-12-25T17:37:11.114Z,12.56
2022-12-25T17:39:13.429Z,12.61
2022-12-25T17:41:17.749Z,12.61
2022-12-25T17:43:21.118Z,12.58
2022-12-25T17:45:23.352Z,12.55
2022-12-25T17:47:26.270Z,12.54
2022-12-25T17:49:28.212Z,12.54
2022-12-25T17:51:31.879Z,12.53
2022-12-25T17:53:36.385Z,12.45
2022-12-25T17:55:41.191Z,12.54
2022-12-25T17:57:43.165Z,12.39
2022-12-25T17:59:45.372Z,12.41
2022-12-25T18:01:48.254Z,12.45
2022-12-25T18:03:51.054Z,12.40
2022-12-25T18:05:53.173Z,12.28
2022-12-25T18:07:55.121Z,12.22
2022-12-25T18:09:57.108Z,12.34
2022-12-25T18:11:59.099Z,12.34
2022-12-25T18:14:04.531Z,12.33
2022-12-25T18:16:07.757Z,12.19
2022-12-25T18:18:10.089Z,12.27
2022-12-25T18:20:12.864Z,12.33
2022-12-25T18:22:14.808Z,12.19
2022-12-25T18:24:16.827Z,12.20
2022-12-25T18:26:19.708Z,12.28
2022-12-25T18:28:21.701Z,12.33
2022-12-25T18:30:23.638Z,12.23
2022-12-25T18:32:28.120Z,12.28
2022-12-25T18:34:30.420Z,12.29
2022-12-25T18:36:32.554Z,12.36
2022-12-25T18:38:35.664Z,12.37
2022-12-25T18:40:42.898Z,12.34
2022-12-25T18:42:46.733Z,12.16
2022-12-25T18:44:48.649Z,12.21
2022-12-25T18:46:50.663Z,12.22
2022-12-25T18:48:54.964Z,12.22
2022-12-25T18:50:59.813Z,12.16
2022-12-25T18:53:02.088Z,12.12
2022-12-25T18:55:04.819Z,12.16
2022-12-25T18:57:07.396Z,12.18
2022-12-25T18:59:09.521Z,12.20
2022-12-25T19:01:15.202Z,12.22
2022-12-25T19:03:17.572Z,12.18
2022-12-25T19:05:19.526Z,12.16
2022-12-25T19:07:22.792Z,12.17
2022-12-25T19:09:24.797Z,12.13
2022-12-25T19:11:26.736Z,12.15
2022-12-25T19:13:28.773Z,12.10
2022-12-25T19:15:30.734Z,12.04
2022-12-25T19:17:34.368Z,12.07
2022-12-25T19:19:39.082Z,11.98
2022-12-25T19:21:41.795Z,11.99
2022-12-25T19:23:43.953Z,11.99
2022-12-25T19:25:45.943Z,11.82
2022-12-25T19:27:48.007Z,11.96
2022-12-25T19:29:49.910Z,11.95
2022-12-25T19:31:52.051Z,11.95
2022-12-25T19:33:54.730Z,12.00
2022-12-25T19:36:00.866Z,12.02
2022-12-25T19:38:02.811Z,12.02
2022-12-25T19:40:05.561Z,12.06
2022-12-25T19:42:07.474Z,11.98
2022-12-25T19:44:09.452Z,11.92
2022-12-25T19:46:18.024Z,12.00
2022-12-25T19:48:19.975Z,12.03
2022-12-25T19:50:22.433Z,12.05
2022-12-25T19:52:24.352Z,11.99
2022-12-25T19:54:26.347Z,11.96
2022-12-25T19:56:29.488Z,11.89
2022-12-25T19:58:31.437Z,11.95
2022-12-25T20:00:33.380Z,11.91
2022-12-25T20:02:35.397Z,11.94
2022-12-25T20:04:37.591Z,11.94
2022-12-25T20:06:40.948Z,11.97
2022-12-25T20:08:42.844Z,11.96
2022-12-25T20:10:45.752Z,11.98
2022-12-25T20:12:47.746Z,11.93
2022-12-25T20:14:49.625Z,11.82
2022-12-25T20:16:51.592Z,11.82
2022-12-25T20:18:53.862Z,11.92
2022-12-25T20:20:59.734Z,11.84
2022-12-25T20:23:01.741Z,11.79
2022-12-25T20:25:04.786Z,11.85
2022-12-25T20:27:06.725Z,11.85
2022-12-25T20:29:08.810Z,11.69
2022-12-25T20:31:16.033Z,11.72
2022-12-25T20:33:17.941Z,11.79
2022-12-25T20:35:19.914Z,11.84
2022-12-25T20:37:21.897Z,11.85
2022-12-25T20:39:23.837Z,11.84
2022-12-25T20:41:27.844Z,11.84
2022-12-25T20:43:30.185Z,11.90
2022-12-25T20:45:32.278Z,11.88
2022-12-25T20:47:35.091Z,11.85
2022-12-25T20:49:36.999Z,11.79
2022-12-25T20:51:39.748Z,11.77
2022-12-25T20:53:43.432Z,11.79
2022-12-25T20:55:46.917Z,11.77
2022-12-25T20:57:48.953Z,11.71
2022-12-25T20:59:51.837Z,11.64
2022-12-25T21:01:55.778Z,11.68
2022-12-25T21:03:58.778Z,11.66
2022-12-25T21:06:01.682Z,11.70
2022-12-25T21:08:03.640Z,11.67
2022-12-25T21:10:06.477Z,11.68
2022-12-25T21:12:08.461Z,11.76
2022-12-25T21:14:10.479Z,11.71
2022-12-25T21:16:16.160Z,11.66
2022-12-25T21:18:20.626Z,11.69
2022-12-25T21:20:22.651Z,11.64
2022-12-25T21:22:24.607Z,11.73
2022-12-25T21:24:26.550Z,11.66
2022-12-25T21:26:31.536Z,11.74
2022-12-25T21:28:34.733Z,11.78
2022-12-25T21:30:36.953Z,11.72
2022-12-25T21:32:42.265Z,11.69
2022-12-25T21:34:44.367Z,11.77
2022-12-25T21:36:46.666Z,11.81
2022-12-25T21:38:52.909Z,11.70
2022-12-25T21:40:55.105Z,11.76
2022-12-25T21:42:57.057Z,11.76
2022-12-25T21:44:58.984Z,11.78
2022-12-25T21:47:01.027Z,11.78
2022-12-25T21:49:03.297Z,11.82
2022-12-25T21:51:13.188Z,11.78
2022-12-25T21:53:16.597Z,11.69
2022-12-25T21:55:18.469Z,11.72
2022-12-25T21:57:20.569Z,11.75
2022-12-25T21:59:22.885Z,11.78
2022-12-25T22:01:25.039Z,11.76
2022-12-25T22:03:27.195Z,11.84
2022-12-25T22:05:32.337Z,11.81
2022-12-25T22:07:34.288Z,11.75
2022-12-25T22:09:37.835Z,11.83
2022-12-25T22:11:43.046Z,11.87
2022-12-25T22:13:48.057Z,11.87
2022-12-25T22:15:53.125Z,11.93
2022-12-25T22:17:58.148Z,11.67
2022-12-25T22:20:00.121Z,11.82
2022-12-25T22:22:02.091Z,11.80
2022-12-25T22:24:07.198Z,11.80
2022-12-25T22:26:09.128Z,11.81
2022-12-25T22:28:11.027Z,11.81
2022-12-25T22:30:17.382Z,11.81
2022-12-25T22:32:19.611Z,11.82
2022-12-25T22:34:21.524Z,11.78
2022-12-25T22:36:23.681Z,11.89
2022-12-25T22:38:25.640Z,11.93
2022-12-25T22:40:27.946Z,11.94
2022-12-25T22:42:29.941Z,11.92
2022-12-25T22:44:32.990Z,11.85
2022-12-25T22:46:34.997Z,11.92
2022-12-25T22:48:36.924Z,11.86
2022-12-25T22:50:38.831Z,11.81
2022-12-25T22:52:40.985Z,11.84
2022-12-25T22:54:42.960Z,11.92
2022-12-25T22:56:47.453Z,11.91
2022-12-25T22:58:49.453Z,11.78
2022-12-25T23:00:51.432Z,11.74
2022-12-25T23:02:53.614Z,11.79
2022-12-25T23:04:55.715Z,11.77
2022-12-25T23:06:57.890Z,11.77
2022-12-25T23:09:00.354Z,11.74
2022-12-25T23:11:04.508Z,11.72
2022-12-25T23:13:09.571Z,11.74
2022-12-25T23:15:11.543Z,11.81
2022-12-25T23:17:16.817Z,11.80
2022-12-25T23:19:21.893Z,11.73
2022-12-25T23:21:29.809Z,11.69
2022-12-25T23:23:34.909Z,11.73
2022-12-25T23:25:39.936Z,11.65
2022-12-25T23:27:42.697Z,11.61
2022-12-25T23:29:44.737Z,11.66
2022-12-25T23:31:53.700Z,11.76
2022-12-25T23:33:55.795Z,11.72
2022-12-25T23:35:57.709Z,11.62
2022-12-25T23:37:59.630Z,11.73
2022-12-25T23:40:01.580Z,11.78
2022-12-25T23:42:03.661Z,11.70
2022-12-25T23:44:05.631Z,11.72
2022-12-25T23:46:07.645Z,11.77
2022-12-25T23:48:09.595Z,11.71
2022-12-25T23:50:11.547Z,11.76
2022-12-25T23:52:14.147Z,11.72
2022-12-25T23:54:20.140Z,11.68
2022-12-25T23:56:22.130Z,11.76
2022-12-25T23:58:26.654Z,11.70
